• Join FlightAware (Why Join?)
  • Login
  • US Flag 
12:50AM EDT


 

Airport Tracker/Info


-or-


 

Live Flight TrackerFlight Track Log ✈ SWA2236 ✈ 14-Jul-2013 ✈ KJAX - KBWI

Flight Track Log - Related Links

Times and Time Zones

All times are in EDT time to prevent confusion due to time zone crossing. See the SWA2236 flight status page for this flight to view local times or setup timezone preferences in your user account.

Time Position Orientation Groundspeed Altitude Reporting Facility
EDT Latitude Longitude Course Direction KTS MPH feet Rate Location/Type
07:51PM 30.5050 -81.6703 49° Northeast 159 183 700  Level Jacksonville Center
07:52PM 30.5483 -81.6117 49° Northeast 233 268 3,600 2,400 Climbing Jacksonville Center
07:53PM 30.6061 -81.5553 40° Northeast 263 303 6,500 3,120 Climbing Jacksonville Center
07:54PM 30.6639 -81.4942 42° Northeast 268 308 10,000 3,000 Climbing Jacksonville Center
07:55PM 30.7386 -81.4497 27° Northeast 280 322 12,600 2,580 Climbing Jacksonville Center
07:56PM 30.8386 -81.4361 North 316 364 15,200 2,640 Climbing Jacksonville Center
07:57PM 30.9450 -81.4150 10° North 351 404 17,900 2,640 Climbing Jacksonville Center
07:58PM 31.0553 -81.3964 North 383 441 20,500 2,520 Climbing Jacksonville Center
07:59PM 31.1678 -81.3750 North 404 465 22,900 2,220 Climbing Jacksonville Center
08:00PM 31.2844 -81.3561 North 417 480 25,000 1,980 Climbing Jacksonville Center
08:01PM 31.3908 -81.3350 10° North 428 493 26,900 1,800 Climbing Jacksonville Center
08:02PM 31.5261 -81.3108 North 440 506 28,700 1,560 Climbing Jacksonville Center
08:03PM 31.6511 -81.2892 North 446 513 30,100 1,680 Climbing Jacksonville Center
08:04PM 31.7636 -81.2675 North 446 513 32,100 2,040 Climbing Jacksonville Center
08:05PM 31.8989 -81.2456 North 446 513 34,200 2,100 Climbing Jacksonville Center
08:06PM 32.0156 -81.2217 10° North 440 506 36,300 1,800 Climbing Jacksonville Center
08:07PM 32.1300 -81.1900 13° North 425 489 37,800 1,200 Climbing Jacksonville Center
08:08PM 32.2186 -81.1072 38° Northeast 398 458 38,700 600 Climbing Jacksonville Center
08:09PM 32.3053 -81.0269 38° Northeast 416 479 39,000 120 Climbing Jacksonville Center
08:10PM 32.3978 -80.9342 40° Northeast 409 471 39,000  Level Jacksonville Center
08:11PM 32.4839 -80.8461 41° Northeast 404 465 39,000  Level Jacksonville Center
08:12PM 32.5681 -80.7603 41° Northeast 407 468 39,000  Level Jacksonville Center
08:13PM 32.6564 -80.6744 39° Northeast 402 463 39,000  Level Jacksonville Center
08:14PM 32.7406 -80.5883 41° Northeast 402 463 39,000  Level Jacksonville Center
08:15PM 32.8286 -80.5019 39° Northeast 402 463 39,000  Level Jacksonville Center
08:16PM 32.9128 -80.4181 40° Northeast 397 457 39,000  Level Jacksonville Center
08:17PM 33.0006 -80.3292 40° Northeast 404 465 39,000  Level Jacksonville Center
08:18PM 33.0803 -80.2450 41° Northeast 398 458 39,000  Level Jacksonville Center
08:19PM 33.1725 -80.1578 38° Northeast 404 465 39,000  Level Jacksonville Center
08:20PM 33.2519 -80.0758 41° Northeast 412 474 39,000  Level Jacksonville Center
08:21PM 33.3356 -79.9911 40° Northeast 401 461 39,000  Level Jacksonville Center
08:22PM 33.4211 -79.9039 40° Northeast 401 461 39,000  Level Jacksonville Center
08:23PM 33.5067 -79.8164 40° Northeast 401 461 39,000  Level Jacksonville Center
08:24PM 33.5944 -79.7358 37° Northeast 401 461 39,000  Level Jacksonville Center
08:25PM 33.6972 -79.6747 26° Northeast 401 461 39,000  Level Jacksonville Center
08:26PM 33.8022 -79.6161 25° Northeast 401 461 39,000  Level Jacksonville Center
08:27PM 33.9050 -79.5547 26° Northeast 401 461 39,000  Level Jacksonville Center
08:28PM 34.0056 -79.4931 27° Northeast 401 461 39,000  Level Jacksonville Center
08:30PM 34.2186 -79.3692 26° Northeast 382 440 39,000  Level Washington Center
08:31PM 34.3228 -79.3061 27° Northeast 395 455 39,000  Level Washington Center
08:32PM 34.4206 -79.2475 26° Northeast 395 455 39,000  Level Washington Center
08:33PM 34.5228 -79.1839 27° Northeast 395 455 39,000  Level Washington Center
08:34PM 34.6225 -79.1253 26° Northeast 395 455 39,000  Level Washington Center
08:35PM 34.7244 -79.0639 26° Northeast 395 455 39,000  Level Washington Center
08:36PM 34.8242 -79.0050 26° Northeast 395 455 39,000 -420 Level Washington Center
08:37PM 34.9239 -78.9433 27° Northeast 395 455 38,200 -900 Descending Washington Center
08:38PM 35.0258 -78.8817 26° Northeast 395 455 37,300 -960 Descending Washington Center
08:39PM 35.1275 -78.8222 26° Northeast 400 460 36,300 -960 Descending Washington Center
08:40PM 35.2317 -78.7578 27° Northeast 400 460 35,400 -660 Descending Washington Center
08:41PM 35.3333 -78.6956 27° Northeast 405 466 35,000 -660 Descending Washington Center
08:42PM 35.4289 -78.6356 27° Northeast 417 480 34,200 -960 Descending Washington Center
08:43PM 35.5392 -78.5658 27° Northeast 412 474 33,200 -900 Descending Washington Center
08:44PM 35.6428 -78.5083 24° Northeast 412 474 32,400 -960 Descending Washington Center
08:45PM 35.7425 -78.4428 28° Northeast 420 483 31,400 -1,020 Descending Washington Center
08:46PM 35.8461 -78.3800 26° Northeast 415 478 30,400 -1,020 Descending Washington Center
08:47PM 35.9478 -78.3169 27° Northeast 415 478 29,400 -720 Descending Washington Center
08:48PM 36.0472 -78.2508 28° Northeast 409 471 29,000 -240 Descending Washington Center
08:49PM 36.1489 -78.1900 26° Northeast 409 471 29,000  Level Washington Center
08:50PM 36.2503 -78.1264 27° Northeast 409 471 29,000  Level Washington Center
08:51PM 36.3539 -78.0600 27° Northeast 409 471 29,000  Level Washington Center
08:52PM 36.4617 -77.9911 27° Northeast 409 471 29,000  Level Washington Center
08:53PM 36.5653 -77.9272 26° Northeast 409 471 29,000 -180 Level Washington Center
08:54PM 36.6581 -77.8678 27° Northeast 415 478 28,700 -540 Descending Washington Center
08:55PM 36.7617 -77.8008 27° Northeast 415 478 28,000 -420 Descending Washington Center
08:56PM 36.8650 -77.7311 28° Northeast 415 478 27,900 -660 Descending Washington Center
08:57PM 36.9706 -77.6664 26° Northeast 415 478 26,700 -1,260 Descending Washington Center
08:58PM 37.0761 -77.5964 28° Northeast 415 478 25,400 -900 Descending Washington Center
08:59PM 37.1794 -77.5314 27° Northeast 415 478 25,000 -540 Descending Washington Center
09:00PM 37.2886 -77.4819 20° North 410 472 24,400 -840 Descending Washington Center
09:01PM 37.3997 -77.4481 14° North 410 472 23,400 -720 Descending Washington Center
09:02PM 37.5108 -77.4114 15° North 405 466 23,000 -240 Descending Washington Center
09:03PM 37.6197 -77.3772 14° North 400 460 23,000  Level Washington Center
09:04PM 37.7308 -77.3431 14° North 400 460 23,000  Level Washington Center
09:05PM 37.8397 -77.3089 14° North 400 460 23,000  Level Washington Center
09:06PM 37.9508 -77.2744 14° North 400 460 23,000 -480 Level Washington Center
09:07PM 38.0597 -77.2428 13° North 395 455 22,100 -1,380 Descending Washington Center
09:08PM 38.1750 -77.2081 13° North 395 455 20,300 -3,660 Descending Washington Center
09:09PM 38.2669 -77.1758 15° North 390 449 15,000 -2,520 Descending Washington Center
09:10PM 38.3675 -77.1408 15° North 379 436 15,200 -540 Climbing Washington Center
09:11PM 38.4478 -77.0578 39° Northeast 365 420 14,000 -1,680 Descending Washington Center
09:12PM 38.5219 -76.9689 43° Northeast 360 414 12,000 -1,500 Descending Washington Center
09:13PM 38.5894 -76.8878 43° Northeast 345 397 11,100 -960 Descending Washington Center
09:14PM 38.6508 -76.8119 44° Northeast 319 367 10,100 -1,020 Descending Washington Center
09:15PM 38.7078 -76.7383 45° Northeast 301 346 9,100 -1,080 Descending Washington Center
09:16PM 38.7461 -76.6536 60° Northeast 281 323 8,000 -1,380 Descending Washington Center
09:17PM 38.8000 -76.5500 56° Northeast 279 321 6,300 -1,200 Descending Potomac TRACON
09:18PM 38.8500 -76.5000 38° Northeast 255 293 5,700 -720 Descending Potomac TRACON
09:19PM 38.9167 -76.4833 11° North 236 272 5,000 -900 Descending Potomac TRACON
09:20PM 38.9667 -76.4667 15° North 227 261 4,000 -600 Descending Potomac TRACON
09:21PM 39.0333 -76.4500 11° North 202 232 3,800 -540 Descending Potomac TRACON
09:22PM 39.0833 -76.4500 360° North 186 214 3,000 -840 Descending Potomac TRACON
09:23PM 39.1167 -76.4500 360° North 187 215 2,300 -540 Descending Potomac TRACON
09:24PM 39.1667 -76.4833 333° Northwest 185 213 2,000 -300 Descending Potomac TRACON
09:25PM 39.1667 -76.5500 270° West 173 199 1,800 -540 Descending Potomac TRACON
09:26PM 39.1667 -76.6000 270° West 147 169 1,000 -900 Descending Potomac TRACON
09:28PM 39.1667 -76.6667 288° West  Level FlightAware Approximate
09:35PM 39.1754 -76.6683 288° West  Level Estimated
09:36PM 39.1754 -76.6683 288° West  Level Estimated
09:37PM 39.1754 -76.6683 288° West  Level Estimated